Portada
METAR-TAF:

METAR-TAF

Aeroports :

Aeroport de Sania Ramel

Tetuan, Marroc

latitud: 35-35N, longitud: 005-20W, altitud: 10 m

Observació

L'informe es va fer fa 14 minuts, a les 13:00 UTC
Vent 12 kt del Est, variant entre Nord-Est i Est/Sud-Est
Temperatura 23°C
Humitat 73%
Pressió 1013 hPa
Visibilitat 10 km o més
Núvols disperses a una alçada de 2000 ft

METAR: GMTN 301300Z 08012KT 050V120 9999 SCT020 23/18 Q1013 NOSIG

Hora: 14:14 (13:14 UTC)


TAF: manca

Observacions i pronòstics meteorològics de més de 4000 aeroports (METAR i TAF).

Les estacions disponibles són els punts grocs i vermells al mapa.

Posi el ratolí al punt desitjat per veure el nom de l'estació.

Feu clic per veure les observacions i els pronòstics meteorològics.

Per canviar el mapa: feu clic els botons verds amb una creu de color negre per apropar; al botó verd amb un guió per allunyar la imatge; o en les fletxes verdes per a mapes adjacents.


METAR-TAF: